Last 365 Observations

Pierce College

Daily Data | America/Los_Angeles
as of 9/30/22 7:07 PM PDT
Date Daily Max Temp (°F) Time of Max Temp Daily Min Temp (°F) Time of Min Temp Daily Rain (In) Monthly Rain (In) Seasonal Rainfall (In) Daily ETo (in) Daily Solar Rad (Cal/cm2) Daily Max Wind (mph) Max Wind Dir (°) Time of Max Wind Dew Pt (°F) Max RH (%) Min RH (%) Daily Leaf Wet Hrs (hrs) Max Pressure (mb) (mb) Time of Max Press Min pressure (mb) (mb) Time of Min Press Evap Pan Level (In) Evap Pan Max Wind (mph) Evap Pan H2O Max Temp (°F) Evap Pan H2O Min Temp (°F) Evap Pan WindRun (miles) Storm Total (In) Max 1 Min Rain (In) Max 1 Min Rain Time Max 10 Min Rain (In) Max 10 Min Rain Time Max 60 Min Rain (In) Max 60 Min Rain Time
9/29/22 99.2 1525 60.8 0625 0.00 0.16 0.16 0.149 444 7.8 W | 262 1528 54.9 84 23 0.0 1,017.0 0933 1,012.0 1633 3.8 7.5 115.5 51.5 14.2 - - - - - - -
9/28/22 104.9 1520 63.7 0618 0.00 0.16 0.16 0.152 442 11.0 NW | 310 1502 53.5 70 15 0.0 1,017.0 0006 1,013.0 1429 3.8 9.4 118.5 54.6 12.4 - - - - - - -
9/27/22 106.7 1505 63.3 0636 0.00 0.16 0.16 0.157 448 9.4 WSW | 240 1654 51.8 71 11 0.0 1,014.0 0030 1,010.0 1613 3.8 7.3 123.7 54.5 15.0 - - - - - - -
9/26/22 104.4 1434 62.6 0649 0.00 0.16 0.16 0.159 454 11.4 W | 261 1355 48.5 60 18 0.0 1,015.0 0810 1,011.0 1655 3.8 11.6 123.7 54.0 21.2 - - - - - - -
9/25/22 101.9 1434 61.6 0644 0.00 0.16 0.16 0.164 460 10.0 WSW | 252 1511 40.9 51 11 0.0 1,018.0 0917 1,013.0 1646 3.8 7.9 123.9 53.2 27.3 - - - - - - -
9/24/22 99.5 1428 60.3 0626 0.00 0.16 0.16 0.157 460 9.8 W | 259 1530 43.6 65 15 0.0 1,018.0 1014 1,015.0 1629 3.8 7.5 122.1 52.0 21.3 - - - - - - -
9/23/22 95.8 1339 53.4 0642 0.00 0.16 0.16 0.166 485 10.1 SE | 136 1429 43.5 86 6 0.2 1,016.0 0012 1,012.0 1559 3.8 7.4 115.7 41.9 16.8 - - - - - - -
9/22/22 93.1 1505 51.7 0613 0.00 0.16 0.16 0.160 500 8.6 SE | 137 1519 43.3 89 6 4.6 1,016.0 0813 1,012.0 1600 3.8 7.7 117.6 41.9 16.8 - - - - - - -
9/21/22 83.9 1452 55.6 0605 0.00 0.16 0.16 0.167 501 13.0 WSW | 237 1503 49.8 90 21 5.1 1,016.0 0847 1,012.0 1626 3.8 9.7 110.6 46.9 46.0 - - - - - - -
9/20/22 83.4 1518 57.3 0507 0.00 0.16 0.16 0.127 379 11.4 W | 262 1810 55.3 90 38 3.5 1,015.0 0953 1,012.0 1720 3.8 9.0 103.3 49.1 38.9 - - - - - - -
9/19/22 81.7 1629 53.7 0635 0.00 0.16 0.16 0.155 494 11.0 WSW | 254 1534 53.8 92 37 4.5 1,013.0 0059 1,010.0 1524 3.8 8.6 108.6 43.8 31.4 - - - - - - -
9/18/22 76.6 1216 58.1 0059 0.00 0.16 0.16 0.133 424 11.2 SSW | 204 1412 54.5 82 43 0.0 1,012.0 0101 1,009.0 0207 3.8 9.2 110.3 49.2 27.4 - - - - - - -
9/17/22 78.7 1515 57.0 0658 0.00 0.16 0.16 0.099 313 9.3 SE | 135 1640 56.0 90 46 2.0 1,013.0 0939 1,008.0 1715 3.8 7.1 96.6 49.1 16.2 - - - - - - -
9/16/22 85.6 1335 56.1 0542 0.00 0.16 0.16 0.156 494 11.0 SE | 134 1354 54.3 88 30 0.0 1,016.0 0923 1,011.0 1842 3.8 7.9 117.2 46.4 21.2 - - - - - - -
9/15/22 85.9 1457 58.5 0452 0.00 0.16 0.16 0.143 438 10.5 SSW | 205 1506 55.4 88 36 0.0 1,017.0 0936 1,012.0 1722 3.8 9.2 113.0 48.9 24.1 - - - - - - -
9/14/22 84.5 1333 59.6 0539 0.00 0.16 0.16 0.160 497 11.1 SE | 127 1335 55.5 83 40 0.0 1,014.0 0951 1,011.0 1515 3.8 8.2 106.5 52.7 24.1 - - - - - - -
9/13/22 85.8 1454 64.3 0659 0.00 0.16 0.16 0.167 486 11.1 S | 190 1401 56.7 82 33 0.0 1,014.0 0953 1,010.0 1707 3.8 7.9 114.4 57.6 18.7 - - - - - - -
9/12/22 87.8 1541 67.8 0620 0.00 0.16 0.16 0.141 387 13.0 WSW | 252 1820 61.8 84 43 0.3 1,017.0 0901 1,012.0 1635 3.8 8.9 115.7 61.4 28.6 - - - - - - -
9/11/22 92.3 1327 73.1 0101 0.00 0.16 0.16 0.151 411 11.0 W | 261 1709 65.1 78 39 0.0 1,018.0 1008 1,014.0 1648 3.8 7.1 100.3 68.9 23.7 - - - - - - -
9/10/22 82.0 1454 68.4 0413 0.01 0.16 0.16 0.069 175 7.7 SSW | 206 1540 65.3 90 56 4.7 1,016.0 0054 1,009.0 0212 3.8 4.9 90.1 67.4 12.2 0.16 0.01 0114 0.01 0123 0.03 0125
9/9/22 99.0 1344 69.1 0042 0.15 0.15 0.15 0.129 286 13.5 NE | 50 1542 61.1 90 29 6.1 1,009.0 0059 1,002.0 1404 3.8 8.5 125.4 64.4 15.8 0.15 0.01 0050 0.02 2237 0.05 2318
9/8/22 99.7 1625 71.7 0647 0.00 0.00 0.00 0.119 267 9.6 W | 265 1847 58.4 64 25 0.1 1,014.0 0120 1,003.0 0009 3.8 6.7 121.4 64.4 20.1 - - - - - - -
9/7/22 107.8 1412 71.7 0624 0.00 0.00 0.00 0.183 483 12.1 SE | 146 1550 58.6 71 17 0.0 1,016.0 0956 1,012.0 1621 3.8 7.9 139.6 66.4 12.8 - - - - - - -
9/6/22 109.4 1511 70.8 0558 0.00 0.00 0.00 0.189 487 10.1 SE | 146 1532 61.5 73 15 0.0 1,015.0 0101 1,010.0 0140 3.8 8.0 147.7 65.8 12.6 - - - - - - -
9/5/22 110.5 1350 73.0 0556 0.00 0.00 0.00 0.197 491 10.5 SSE | 166 1454 60.9 69 16 0.0 1,011.0 0900 1,007.0 1626 3.8 7.8 146.8 67.7 16.0 - - - - - - -
9/4/22 112.0 1400 74.8 0507 0.00 0.00 0.00 0.198 478 13.5 W | 261 1733 57.5 53 15 0.0 1,014.0 0654 1,009.0 1529 3.8 8.6 156.6 69.0 19.0 - - - - - - -
9/3/22 110.6 1425 71.8 0531 0.00 0.00 0.00 0.197 480 12.8 WSW | 248 1621 58.2 62 21 0.0 1,013.0 0036 1,010.0 1513 3.8 7.4 146.1 66.2 18.0 - - - - - - -
9/2/22 105.7 1402 69.3 0551 0.00 0.00 0.00 0.193 492 11.4 S | 186 1423 58.4 71 20 0.1 1,012.0 0044 1,007.0 1717 3.8 7.2 136.4 62.0 15.4 - - - - - - -
9/1/22 109.4 1421 74.4 0044 0.00 0.00 0.00 0.194 509 7.1 SE | 128 1543 52.3 59 15 0.0 1,010.0 0846 1,006.0 1717 3.8 4.3 139.3 67.9 5.2 - - - - - - -
8/31/22 112.3 1314 66.2 0557 0.00 0.00 0.00 0.240 536 13.5 W | 278 1449 45.7 47 9 0.0 1,013.0 0104 1,009.0 2308 3.8 9.3 154.1 59.4 36.1 - - - - - - -
8/30/22 108.2 1427 61.2 0543 0.00 0.00 0.00 0.203 537 11.4 W | 259 1754 49.4 79 12 0.0 1,016.0 0803 1,012.0 1647 3.8 7.7 151.9 53.0 22.8 - - - - - - -
8/29/22 97.6 1513 60.4 0631 0.00 0.00 0.00 0.185 531 11.1 WSW | 255 1645 55.7 87 21 0.8 1,015.0 0101 1,011.0 1805 3.8 7.8 127.6 54.5 19.2 - - - - - - -
8/28/22 89.9 1437 63.4 0247 0.00 0.00 0.00 0.178 520 8.3 S | 178 1625 58.3 85 35 0.2 1,013.0 0840 1,008.0 1749 3.8 5.6 128.5 58.1 20.9 - - - - - - -
8/27/22 92.0 1701 61.8 0633 0.00 0.00 0.00 0.180 532 11.5 WSW | 241 1646 57.8 85 29 0.4 1,014.0 0158 1,009.0 1652 3.8 6.5 127.0 55.0 12.1 - - - - - - -
8/26/22 98.4 1458 62.7 0644 0.00 0.00 0.00 0.186 538 7.9 WSW | 246 1755 56.1 83 22 0.3 1,016.0 0119 1,011.0 1709 3.8 6.1 140.4 56.1 10.4 - - - - - - -
8/25/22 97.0 1532 65.4 0625 0.00 0.00 0.00 0.196 530 9.0 E | 92 1235 56.1 81 15 0.0 1,016.0 0928 1,013.0 1657 3.8 5.6 143.7 59.2 15.4 - - - - - - -
8/24/22 94.9 1357 63.3 0624 0.00 0.00 0.00 0.193 534 10.3 ESE | 103 1702 58.8 87 21 0.4 1,015.0 0047 1,010.0 1612 3.8 6.7 140.4 56.3 14.2 - - - - - - -
8/23/22 102.7 1547 61.6 0630 0.00 0.00 0.00 0.189 536 7.1 SE | 131 1429 58.6 85 22 0.5 1,013.0 0111 1,007.0 1625 3.8 4.3 140.7 54.2 7.0 - - - - - - -
8/22/22 94.3 1549 62.8 0600 0.00 0.00 0.00 0.176 525 6.4 ENE | 68 1607 59.7 88 33 0.2 1,018.0 0754 1,011.0 1842 3.8 4.4 134.7 56.3 9.4 - - - - - - -
8/21/22 91.0 1640 62.6 0357 0.00 0.00 0.00 0.157 467 10.0 ESE | 120 1112 60.1 88 36 0.0 1,019.0 1020 1,014.0 1754 3.8 5.5 133.4 57.6 10.0 - - - - - - -
8/20/22 89.8 1439 62.4 0641 0.00 0.00 0.00 0.182 535 8.2 ESE | 120 1513 59.3 81 34 0.0 1,015.0 0039 1,010.0 0148 3.8 5.3 131.1 56.0 11.4 - - - - - - -
8/19/22 99.9 1623 60.8 0615 0.00 0.00 0.00 0.188 532 6.9 ESE | 106 1504 53.3 76 22 0.0 1,013.0 0121 1,007.0 1703 3.8 4.9 140.5 53.0 7.2 - - - - - - -
8/18/22 98.0 1556 63.3 0626 0.00 0.00 0.00 0.191 541 8.4 SE | 128 1508 51.9 70 19 0.0 1,015.0 0725 1,010.0 1659 3.8 4.5 144.5 55.8 8.0 - - - - - - -
8/17/22 102.2 1548 65.0 0618 0.00 0.00 0.00 0.195 510 10.7 WSW | 257 1642 49.4 62 10 0.0 1,015.0 0057 1,011.0 1613 3.8 8.4 146.9 57.4 14.4 - - - - - - -
8/16/22 103.9 1509 63.3 0550 0.00 0.00 0.00 0.196 533 11.0 SW | 217 1616 49.7 64 13 0.0 1,013.0 0059 1,008.0 1634 3.8 7.6 152.3 54.0 11.9 - - - - - - -
8/15/22 102.0 1351 62.9 0555 0.00 0.00 0.00 0.202 553 9.3 SE | 145 1529 48.4 62 15 0.0 1,013.0 0117 1,009.0 1555 3.8 7.2 148.8 54.2 14.3 - - - - - - -
8/14/22 103.2 1426 62.8 0612 0.00 0.00 0.00 0.199 554 10.3 WSW | 240 1437 46.6 60 10 0.0 1,015.0 0808 1,011.0 1752 3.8 6.3 144.3 53.1 11.1 - - - - - - -
8/13/22 104.4 1607 63.8 0620 0.00 0.00 0.00 0.206 558 8.6 SW | 219 1612 46.1 69 6 0.0 1,016.0 2333 1,012.0 1746 3.8 5.9 139.1 55.6 12.2 - - - - - - -
8/12/22 105.3 1533 62.3 0537 0.00 0.00 0.00 0.199 564 10.8 W | 266 1543 47.5 74 9 0.0 1,016.0 0846 1,012.0 1626 3.8 6.9 157.0 54.0 13.3 - - - - - - -
8/11/22 103.6 1347 63.8 0555 0.00 0.00 0.00 0.207 568 12.1 W | 280 1533 42.1 56 9 0.0 1,018.0 0826 1,013.0 1832 3.8 8.4 153.0 56.3 18.0 - - - - - - -
8/10/22 100.3 1613 66.0 0613 0.00 0.00 0.00 0.210 563 10.9 SW | 231 1530 44.7 54 8 0.0 1,018.0 0911 1,014.0 1610 3.8 8.2 151.1 57.7 18.6 - - - - - - -
8/9/22 100.4 1419 69.3 0517 0.00 0.00 0.00 0.199 529 10.9 SSW | 197 1525 47.6 61 9 0.0 1,016.0 0008 1,012.0 1710 3.8 7.6 143.3 63.0 18.4 - - - - - - -
8/8/22 99.7 1447 66.0 0615 0.00 0.00 0.00 0.201 553 9.0 S | 191 1543 53.8 66 20 0.0 1,016.0 0839 1,012.0 1651 3.8 5.9 138.3 59.2 12.8 - - - - - - -
8/7/22 105.2 1356 60.3 0623 0.00 0.00 0.00 0.213 572 10.4 SSW | 195 1537 47.5 70 9 0.0 1,015.0 0846 1,012.0 1648 3.8 7.4 150.3 51.7 11.6 - - - - - - -
8/6/22 101.5 1357 62.7 0612 0.00 0.00 0.00 0.226 575 15.1 WSW | 250 1522 50.6 75 11 0.0 1,016.0 0833 1,011.0 1742 3.8 9.6 155.4 55.3 27.6 - - - - - - -
8/5/22 98.7 1443 68.2 0611 0.00 0.00 0.00 0.190 525 11.6 SW | 227 1502 56.5 66 25 0.0 1,016.0 0849 1,012.0 1830 3.8 7.5 147.2 61.5 23.5 - - - - - - -
8/4/22 91.0 1356 66.6 0538 0.00 0.00 0.00 0.158 410 8.5 W | 267 1820 56.8 76 26 0.0 1,015.0 0751 1,012.0 1728 3.8 5.7 137.9 61.9 14.9 - - - - - - -
8/3/22 96.0 1502 66.2 0618 0.00 0.00 0.00 0.194 540 9.0 SSW | 202 1535 55.1 71 24 0.0 1,016.0 0814 1,011.0 1811 3.8 5.7 145.6 60.5 11.9 - - - - - - -
8/2/22 99.1 1329 64.6 0544 0.00 0.00 0.00 0.208 554 13.8 WNW | 282 1639 54.0 80 17 0.0 1,018.0 0831 1,014.0 1755 3.8 10.0 152.8 59.6 23.3 - - - - - - -
8/1/22 100.6 1400 67.1 0629 0.00 0.00 0.00 0.190 512 10.8 WSW | 241 1457 51.5 71 22 0.0 1,018.0 0116 1,014.0 1707 3.8 7.2 147.6 62.1 15.7 - - - - - - -
7/31/22 98.3 1628 68.3 0558 0.00 0.00 0.00 0.155 412 8.9 SSE | 149 1729 50.2 60 17 0.1 1,018.0 0036 1,014.0 1546 3.8 5.2 135.1 65.2 11.0 - - - - - - -
7/30/22 96.0 1538 64.4 0607 0.00 0.00 0.00 0.139 370 8.7 SE | 137 1721 54.3 70 23 0.0 1,017.0 0014 1,012.0 1615 3.8 5.6 123.5 60.0 12.7 - - - - - - -
7/29/22 98.4 1440 61.8 0618 0.00 0.00 0.00 0.201 556 9.1 SW | 227 1645 52.7 76 17 0.0 1,015.0 0048 1,011.0 1544 3.8 6.3 137.9 55.5 13.0 - - - - - - -
7/28/22 93.6 1446 61.4 0615 0.00 0.00 0.00 0.177 509 8.2 SE | 142 1416 49.9 81 13 0.0 1,015.0 0103 1,011.0 1753 3.8 6.0 138.2 55.5 10.0 - - - - - - -
7/27/22 97.5 1623 58.4 0535 0.00 0.00 0.00 0.194 575 12.0 NNE | 12 1611 54.6 87 12 0.0 1,017.0 0821 1,012.0 1823 3.8 7.8 144.0 52.8 10.4 - - - - - - -
7/26/22 95.4 1605 62.0 0425 0.00 0.00 0.00 0.198 578 6.6 WSW | 237 1936 56.5 87 21 0.1 1,016.0 0030 1,012.0 1556 3.8 4.4 144.7 59.4 11.6 - - - - - - -
7/25/22 94.6 1530 62.1 0315 0.00 0.00 0.00 0.203 579 9.4 SW | 225 1559 58.1 88 30 0.1 1,015.0 0943 1,011.0 1657 3.8 5.7 137.9 58.4 17.6 - - - - - - -
7/24/22 95.0 1614 62.2 0332 0.00 0.00 0.00 0.182 532 8.3 W | 273 1746 59.5 86 33 0.7 1,015.0 2216 1,010.0 1618 3.8 5.9 139.8 56.0 10.5 - - - - - - -
7/23/22 95.5 1555 63.9 0414 0.00 0.00 0.00 0.197 578 9.7 W | 262 1646 58.8 84 27 0.4 1,014.0 1032 1,010.0 1636 3.8 7.4 137.9 56.7 12.5 - - - - - - -
7/22/22 95.9 1541 60.5 0618 0.00 0.00 0.00 0.200 582 8.4 SSE | 154 1653 55.3 85 22 0.0 1,014.0 0901 1,009.0 1826 3.8 5.9 139.5 53.1 10.6 - - - - - - -
7/21/22 99.1 1518 62.1 0610 0.00 0.00 0.00 0.209 570 8.9 SSE | 154 1753 49.9 67 17 0.0 1,017.0 0542 1,012.0 1825 3.8 5.4 146.9 53.7 14.0 - - - - - - -
7/20/22 100.5 1640 64.2 0624 0.00 0.00 0.00 0.197 549 9.9 WSW | 245 1725 47.0 63 10 0.0 1,019.0 1009 1,015.0 1807 3.8 7.0 135.8 57.0 11.8 - - - - - - -
7/19/22 102.9 1527 64.2 0559 0.00 0.00 0.00 0.207 579 7.7 E | 92 1210 44.8 66 7 0.0 1,017.0 0848 1,014.0 1733 3.8 7.1 156.9 57.2 15.6 - - - - - - -
7/18/22 100.9 1550 68.2 0619 0.00 0.00 0.00 0.210 570 11.4 SW | 234 1542 56.4 69 17 0.0 1,017.0 0057 1,013.0 0130 3.8 8.1 148.3 62.2 14.4 - - - - - - -
7/17/22 103.3 1319 65.8 0548 0.00 0.00 0.00 0.209 565 12.7 S | 185 1434 55.4 73 14 0.0 1,014.0 2238 1,010.0 1557 3.8 7.3 - - 14.1 - - - - - - -
7/16/22 102.8 1547 65.0 0532 0.00 0.00 0.00 0.207 567 7.0 E | 101 1319 58.2 77 23 0.0 1,015.0 0101 1,010.0 1800 3.8 4.2 147.4 59.8 5.1 - - - - - - -
7/15/22 101.5 1606 63.2 0541 0.00 0.00 0.00 0.204 568 6.4 ENE | 58 1404 58.6 77 27 0.0 1,016.0 0908 1,012.0 1642 3.8 3.9 148.2 58.5 6.4 - - - - - - -
7/14/22 92.2 1315 59.7 0604 0.00 0.00 0.00 0.198 571 10.5 WSW | 239 1553 55.4 83 29 0.0 1,016.0 2222 1,012.0 1552 3.8 13.6 152.8 54.5 10.1 - - - - - - -
7/13/22 95.6 1606 55.9 0551 0.00 0.00 0.00 0.207 594 9.4 WSW | 237 1843 53.2 90 20 0.0 1,016.0 0902 1,011.0 1750 3.8 7.2 150.0 47.5 15.6 - - - - - - -
7/12/22 91.8 1505 57.4 0520 0.00 0.00 0.00 0.198 604 10.6 E | 98 1634 54.9 90 26 0.0 1,015.0 1018 1,011.0 1820 3.8 6.9 149.0 50.0 5.8 - - - - - - -
7/11/22 97.4 1537 58.9 0603 0.00 0.00 0.00 0.208 602 9.9 SW | 233 1651 55.1 85 23 0.0 1,015.0 0107 1,011.0 1749 3.8 6.5 161.7 50.8 6.9 - - - - - - -
7/10/22 99.8 1343 60.2 0516 0.00 0.00 0.00 0.222 605 12.3 SE | 144 1438 52.7 83 18 0.0 1,019.0 0904 1,014.0 1820 3.8 7.3 157.9 53.6 12.0 - - - - - - -
7/9/22 98.6 1509 58.2 0611 0.00 0.00 0.00 0.211 609 11.3 W | 268 1536 50.9 87 16 0.0 1,020.0 0855 1,016.0 1806 3.8 8.0 162.1 51.0 12.1 - - - - - - -
7/8/22 95.7 1636 58.3 0535 0.00 0.00 0.00 0.206 601 10.1 WSW | 253 1623 55.0 86 22 0.0 1,019.0 0059 1,015.0 1620 3.8 6.1 153.6 51.4 7.3 - - - - - - -
7/7/22 95.8 1441 57.6 0639 0.00 0.00 0.00 0.215 609 10.0 WNW | 288 1645 53.2 89 18 0.0 1,017.0 2358 1,013.0 1740 3.8 5.8 153.2 48.7 10.6 - - - - - - -
7/6/22 89.4 1636 60.0 0623 0.00 0.00 0.00 0.195 577 11.0 WSW | 245 1732 56.3 87 29 0.0 1,016.0 0933 1,013.0 1829 3.8 6.5 150.5 54.3 14.7 - - - - - - -
7/5/22 86.7 1446 56.9 0705 0.00 0.00 0.00 0.207 593 11.2 SSW | 197 1835 54.8 85 33 0.0 1,016.0 0929 1,012.0 1747 3.8 7.4 148.9 48.4 17.6 - - - - - - -
7/4/22 84.6 1745 55.4 0651 0.00 0.00 0.00 0.196 593 11.0 SE | 139 1650 52.3 80 35 0.0 1,015.0 1013 1,013.0 1809 3.8 5.8 137.7 48.3 14.2 - - - - - - -
7/3/22 85.3 1502 55.5 0621 0.00 0.00 0.00 0.202 606 10.8 SW | 222 1825 52.6 85 34 0.0 1,015.0 0914 1,012.0 1846 3.8 6.4 143.5 47.6 12.7 - - - - - - -
7/2/22 89.8 1603 59.6 0536 0.00 0.00 0.00 0.217 614 10.6 SW | 225 1603 49.3 82 11 0.0 1,016.0 0904 1,012.0 1857 3.8 5.9 159.3 51.9 15.1 - - - - - - -
7/1/22 95.9 1454 61.0 0648 0.00 0.00 0.00 0.217 599 10.2 WSW | 243 1559 52.1 82 14 0.0 1,017.0 0933 1,013.0 1903 3.8 6.6 154.0 52.7 14.2 - - - - - - -
6/30/22 99.1 1733 63.1 0516 0.00 0.00 12.24 0.207 580 9.7 WSW | 256 1810 53.1 81 17 0.0 1,018.0 0750 1,014.0 1912 3.8 5.5 152.3 54.5 11.9 - - - - - - -
6/29/22 97.5 1441 62.8 0503 0.00 0.00 12.24 0.228 594 10.9 SW | 230 1540 44.3 66 9 0.0 1,018.0 0844 1,014.0 1806 3.8 6.0 153.7 55.1 15.5 - - - - - - -
6/28/22 102.4 1411 64.3 0554 0.00 0.00 12.24 0.229 598 11.9 SSW | 208 1605 46.8 63 10 0.0 1,018.0 0820 1,014.0 1804 3.8 6.1 157.3 56.2 8.5 - - - - - - -
6/27/22 104.0 1707 60.9 0537 0.00 0.00 12.24 0.233 601 10.4 W | 263 1803 45.6 68 3 0.0 1,018.0 0106 1,014.0 1734 3.8 6.4 - - 10.6 - - - - - - -
6/26/22 104.0 1501 60.4 0552 0.00 0.00 12.24 0.224 616 16.0 SW | 235 1513 49.6 73 14 0.0 1,018.0 0058 1,013.0 1620 3.8 8.7 171.6 51.8 12.6 - - - - - - -
6/25/22 101.6 1346 58.4 0532 0.00 0.00 12.24 0.221 618 11.5 ESE | 120 1600 46.5 80 8 0.0 1,016.0 0049 1,012.0 1704 3.8 6.5 158.0 49.1 8.8 - - - - - - -
6/24/22 101.2 1234 58.4 0538 0.00 0.00 12.24 0.244 627 12.0 WSW | 242 1720 39.8 72 5 0.0 1,014.0 0848 1,011.0 1701 3.8 7.7 - - 18.0 - - - - - - -
6/23/22 100.2 1302 64.8 0542 0.00 0.00 12.24 0.232 602 12.4 WSW | 250 1606 46.8 64 7 0.0 1,014.0 0708 1,010.0 1727 3.8 7.4 161.8 54.2 18.5 - - - - - - -
6/22/22 100.2 1418 62.0 0437 0.00 0.00 12.24 0.185 487 9.0 SW | 223 1707 45.7 54 13 0.0 1,015.0 0829 1,012.0 1652 3.8 5.4 161.5 53.5 7.2 - - - - - - -
6/21/22 91.9 1244 58.7 0600 0.00 0.00 12.24 0.224 624 10.7 SE | 132 1319 41.4 71 9 0.0 1,015.0 2308 1,012.0 0200 3.8 6.6 160.3 49.6 11.1 - - - - - - -
6/20/22 99.4 1549 54.2 0600 0.00 0.00 12.24 0.227 628 11.5 SSW | 196 1602 34.0 60 4 0.0 1,015.0 0839 1,010.0 1807 3.8 6.2 162.4 44.6 8.5 - - - - - - -
6/19/22 90.3 1436 51.8 0556 0.00 0.00 12.24 0.210 626 10.8 WSW | 252 1129 43.3 86 15 0.0 1,017.0 0756 1,013.0 1757 3.8 8.1 153.6 43.2 15.4 - - - - - - -
6/18/22 78.6 1712 51.7 0549 0.00 0.00 12.24 0.188 594 13.3 SSW | 210 1328 47.4 89 32 2.0 1,015.0 0027 1,012.0 0105 3.8 7.0 133.4 42.4 15.2 - - - - - - -
6/17/22 81.3 1344 56.0 0045 0.00 0.00 12.24 0.166 510 13.2 WSW | 248 1445 52.9 86 37 0.1 1,012.0 0929 1,010.0 1819 3.8 7.1 132.9 47.9 15.7 - - - - - - -
6/16/22 95.1 1505 61.6 0007 0.00 0.00 12.24 0.207 608 8.0 W | 272 1721 58.6 88 27 0.3 1,012.0 0109 1,007.0 1711 3.8 5.3 158.9 55.1 7.7 - - - - - - -
6/15/22 100.5 1451 56.4 0559 0.00 0.00 12.24 0.206 606 8.9 W | 264 1650 55.7 88 16 3.5 1,013.0 0835 1,009.0 1729 3.8 6.1 150.2 48.0 4.6 - - - - - - -
6/14/22 89.9 1548 54.6 0431 0.00 0.00 12.24 0.200 608 9.9 NW | 310 1635 54.4 89 27 3.4 1,014.0 0849 1,010.0 1915 3.8 6.7 152.9 46.6 8.8 - - - - - - -
6/13/22 84.1 1241 59.9 0049 0.00 0.00 12.24 0.192 590 11.2 SSE | 148 1247 56.6 82 39 0.0 1,014.0 0822 1,010.0 1807 3.8 6.0 151.0 51.5 12.5 - - - - - - -
6/12/22 90.5 1504 59.3 0535 0.00 0.00 12.24 0.220 616 10.0 S | 191 1617 51.4 80 20 0.0 1,013.0 0803 1,010.0 1820 3.8 5.8 153.2 52.3 10.0 - - - - - - -
6/11/22 100.2 1519 61.0 0456 0.00 0.00 12.24 0.212 596 6.7 SSE | 149 1412 55.4 84 23 0.1 1,015.0 0144 1,012.0 1819 3.8 3.5 163.6 54.4 2.6 - - - - - - -
6/10/22 102.6 1642 60.1 0552 0.00 0.00 12.24 0.209 590 6.7 ENE | 74 1524 58.2 88 24 0.6 1,015.0 2309 1,011.0 1735 3.8 3.0 157.3 52.7 2.4 - - - - - - -
6/9/22 99.0 1521 61.5 0120 0.00 0.00 12.24 0.211 621 6.7 ESE | 112 1421 57.1 87 22 0.1 1,013.0 2359 1,009.0 1725 3.8 3.2 167.1 56.0 4.3 - - - - - - -
6/8/22 95.6 1505 60.3 0233 0.00 0.00 12.24 0.205 608 7.9 ENE | 77 1519 57.6 91 27 3.6 1,012.0 0552 1,007.0 1738 3.8 3.1 153.2 51.6 3.9 - - - - - - -
6/7/22 92.4 1432 57.0 0553 0.00 0.00 12.24 0.202 609 7.4 E | 82 1646 56.5 91 32 4.7 1,012.0 2304 1,009.0 1730 3.8 3.7 149.7 49.2 4.2 - - - - - - -
6/6/22 88.6 1517 59.0 0250 0.00 0.00 12.24 0.199 600 8.8 SE | 130 1434 57.9 89 37 0.9 1,013.0 0823 1,009.0 1836 3.8 4.3 142.8 53.6 6.8 - - - - - - -
6/5/22 87.7 1530 54.7 0525 0.00 0.00 12.24 0.193 599 7.5 SE | 130 1415 55.1 90 30 3.1 1,015.0 0851 1,011.0 1723 3.8 4.3 147.3 48.9 5.4 - - - - - - -
6/4/22 79.8 1446 56.5 0146 0.00 0.00 12.24 0.143 448 9.9 WSW | 241 1807 54.1 86 42 0.2 1,015.0 1049 1,012.0 1821 3.8 4.1 126.7 51.9 8.7 - - - - - - -
6/3/22 82.5 1510 57.5 0058 0.00 0.00 12.24 0.160 493 8.2 SW | 218 1627 55.0 84 42 0.1 1,013.0 0047 1,011.0 1657 3.8 4.1 135.7 53.4 7.4 - - - - - - -
6/2/22 91.4 1505 54.6 0606 0.00 0.00 12.24 0.193 576 8.5 NNW | 338 1544 54.4 89 23 5.1 1,013.0 0902 1,009.0 1740 3.8 3.8 154.0 46.3 4.9 - - - - - - -
6/1/22 98.4 1414 53.1 0557 0.00 0.00 12.24 0.219 614 11.6 SW | 227 1510 48.2 89 9 4.7 1,013.0 0739 1,010.0 1635 3.8 4.5 164.0 43.0 6.7 - - - - - - -
5/31/22 85.8 1557 48.9 0534 0.00 0.00 12.24 0.194 611 8.5 SSW | 203 1321 48.3 88 23 4.6 1,012.0 0058 1,009.0 1728 3.8 3.6 143.3 39.5 6.8 - - - - - - -
5/30/22 83.6 1522 49.9 0544 0.00 0.00 12.24 0.208 620 13.2 SSW | 208 1258 45.6 91 18 5.8 1,012.0 0822 1,008.0 1800 3.8 4.9 144.3 39.4 11.1 - - - - - - -
5/29/22 82.6 1551 49.8 0548 0.00 0.00 12.24 0.193 613 12.9 SW | 218 1348 49.5 92 31 6.5 1,012.0 0122 1,008.0 1650 3.8 4.2 142.2 40.9 7.7 - - - - - - -
5/28/22 69.9 1543 51.4 0350 0.00 0.00 12.24 0.077 226 8.6 WSW | 258 1805 50.6 88 51 0.1 1,016.0 0928 1,012.0 0000 3.8 3.5 92.8 43.9 6.3 - - - - - - -
5/27/22 81.1 1436 53.8 0113 0.00 0.00 12.24 0.157 489 9.5 W | 272 1738 50.6 84 34 0.0 1,019.0 0926 1,015.0 1809 3.8 3.8 141.4 47.3 11.0 - - - - - - -
5/26/22 86.6 1331 53.8 0050 0.00 0.00 12.24 0.196 591 10.4 S | 184 1748 51.4 89 15 0.6 1,018.0 2331 1,013.0 1430 3.8 4.3 150.9 47.2 8.6 - - - - - - -
5/25/22 89.6 1522 54.7 0551 0.00 0.00 12.24 0.200 599 7.3 SE | 138 1217 54.6 91 29 0.6 1,014.0 0012 1,011.0 1614 3.8 3.8 147.6 47.6 5.4 - - - - - - -
5/24/22 92.0 1514 57.1 0407 0.00 0.00 12.24 0.195 604 5.6 ESE | 110 1707 53.5 84 28 0.0 1,013.0 2357 1,009.0 1647 3.8 3.4 149.4 50.4 4.5 - - - - - - -
5/23/22 81.0 1559 49.7 0551 0.00 0.00 12.24 0.177 590 8.0 SE | 124 1307 51.2 91 40 3.7 1,016.0 0103 1,010.0 1653 3.8 4.1 142.1 42.3 5.9 - - - - - - -
5/22/22 80.2 1651 48.6 0554 0.00 0.00 12.24 0.187 603 11.4 ENE | 77 1336 48.9 90 35 3.1 1,018.0 0753 1,014.0 1637 3.8 4.1 147.2 40.2 6.6 - - - - - - -
5/21/22 72.1 1253 53.0 0608 0.00 0.00 12.24 0.124 397 10.7 SE | 131 1229 49.9 90 46 0.0 1,018.0 2305 1,012.0 0259 3.8 5.6 122.4 46.1 10.0 - - - - - - -
5/20/22 66.8 1514 55.9 0448 0.00 0.00 12.24 0.067 180 9.3 SSE | 152 1317 51.2 86 56 0.0 1,013.0 2335 1,009.0 0459 3.8 3.8 86.7 54.5 8.2 - - - - - - -
5/19/22 78.8 1428 54.5 0222 0.00 0.00 12.24 0.152 499 8.7 SW | 232 1524 53.3 90 45 2.2 1,015.0 0101 1,010.0 1749 3.8 3.7 132.4 46.3 9.5 - - - - - - -
5/18/22 87.0 1607 52.1 0445 0.00 0.00 12.24 0.172 546 7.9 E | 94 1635 52.7 90 35 1.9 1,018.0 0902 1,013.0 1713 3.8 5.3 137.6 44.6 6.5 - - - - - - -
5/17/22 78.0 1525 50.2 0603 0.00 0.00 12.24 0.166 547 8.3 SW | 233 1719 50.6 87 43 0.9 1,017.0 0903 1,014.0 1706 3.8 4.6 134.4 40.8 7.7 - - - - - - -
5/16/22 85.5 1304 52.9 0512 0.00 0.00 12.24 0.190 598 7.9 E | 85 1333 50.9 84 30 0.0 1,016.0 0747 1,012.0 1747 3.8 4.1 158.1 45.0 6.1 - - - - - - -
5/15/22 92.3 1235 55.0 0536 0.00 0.00 12.24 0.184 527 14.5 WNW | 291 1512 39.7 69 11 0.0 1,015.0 0923 1,012.0 1735 3.8 4.8 161.7 42.8 7.0 - - - - - - -
5/14/22 98.3 1344 52.5 0605 0.00 0.00 12.24 0.213 612 9.6 WSW | 256 1535 32.8 48 7 0.0 1,016.0 0852 1,012.0 1620 3.8 3.9 165.2 39.4 6.7 - - - - - - -
5/13/22 97.1 1453 52.5 0559 0.00 0.00 12.24 0.225 615 10.7 NNE | 26 1002 30.2 44 7 0.0 1,018.0 0107 1,014.0 1617 3.8 4.5 161.2 40.4 9.3 - - - - - - -
5/12/22 87.5 1525 49.4 0557 0.00 0.00 12.24 0.215 619 13.8 SW | 215 1644 25.8 45 8 0.0 1,023.0 0720 1,018.0 1752 3.8 5.9 145.4 37.6 13.6 - - - - - - -
5/11/22 72.2 1438 42.1 0513 0.00 0.00 12.24 0.179 620 13.1 SW | 234 1551 26.9 61 15 0.0 1,023.0 2329 1,017.0 0215 3.8 5.0 130.6 30.5 12.7 - - - - - - -
5/10/22 71.6 1444 41.8 0529 0.00 0.00 12.24 0.184 612 13.9 SW | 234 1424 33.0 74 19 0.0 1,019.0 0914 1,016.0 0129 3.8 7.3 137.2 30.9 16.4 - - - - - - -
5/9/22 69.9 1225 43.4 0559 0.00 0.00 12.24 0.180 606 13.5 SE | 130 1324 32.8 73 22 0.0 1,017.0 0056 1,012.0 0108 3.8 4.9 138.5 33.4 14.2 - - - - - - -
5/8/22 69.1 1550 50.2 0056 0.00 0.00 12.24 0.136 461 11.1 SSE | 165 1309 46.4 87 40 0.7 1,013.0 0844 1,010.0 1833 3.8 4.9 116.5 40.7 12.0 - - - - - - -
5/7/22 80.3 1249 53.6 0610 0.00 0.00 12.24 0.187 585 10.3 SSE | 166 1523 50.5 84 41 0.0 1,015.0 0742 1,010.0 1635 3.8 5.1 137.3 45.8 10.5 - - - - - - -
5/6/22 87.7 1217 52.7 0550 0.00 0.00 12.24 0.197 586 9.1 SSW | 202 1601 47.1 84 22 0.1 1,017.0 0108 1,013.0 1654 3.8 4.6 150.0 45.0 7.8 - - - - - - -
5/5/22 88.9 1528 51.9 0557 0.00 0.00 12.24 0.196 599 11.0 SSW | 208 1445 46.6 91 15 5.2 1,018.0 0912 1,015.0 1619 3.8 5.2 143.5 41.7 8.8 - - - - - - -
5/4/22 91.1 1430 49.1 0606 0.00 0.00 12.24 0.204 600 12.3 WSW | 243 1618 45.4 92 13 6.1 1,016.0 0101 1,012.0 1615 3.8 6.0 162.9 39.7 10.1 - - - - - - -
5/3/22 75.0 1405 52.1 0138 0.00 0.00 12.24 0.177 589 11.0 SW | 236 1732 49.8 85 40 0.5 1,015.0 1202 1,012.0 1656 3.8 5.7 135.7 43.1 12.2 - - - - - - -
5/2/22 79.5 1422 52.6 0054 0.00 0.00 12.24 0.176 580 9.2 SW | 223 1556 50.2 84 38 0.0 1,016.0 0854 1,012.0 1637 3.8 5.5 128.7 43.6 8.9 - - - - - - -
5/1/22 78.2 1326 48.7 0556 0.00 0.00 12.24 0.176 585 10.0 E | 92 1327 48.4 84 39 1.3 1,015.0 0047 1,010.0 0525 3.8 4.5 139.1 38.4 9.3 - - - - - - -
4/30/22 88.3 1357 49.2 0604 0.00 0.34 12.24 0.200 600 10.4 N | 3 1409 44.4 92 14 6.8 1,015.0 0122 1,010.0 1827 3.8 5.2 152.0 37.8 10.9 - - - - - - -
4/29/22 82.7 1459 43.7 0547 0.00 0.34 12.24 0.175 590 9.7 W | 269 1543 45.2 91 24 5.8 1,018.0 0741 1,013.0 1637 3.8 5.0 132.9 34.7 6.9 - - - - - - -
4/28/22 69.7 1524 48.9 0044 0.00 0.34 12.24 0.114 377 11.0 WSW | 244 1647 46.3 86 44 0.1 1,017.0 1118 1,014.0 1647 3.8 5.2 110.1 38.3 14.8 - - - - - - -
4/27/22 76.7 1322 50.2 0525 0.00 0.34 12.24 0.164 548 11.3 SE | 135 1450 47.6 87 37 0.7 1,016.0 1001 1,013.0 0258 3.8 5.5 129.3 40.2 14.2 - - - - - - -
4/26/22 83.9 1245 50.5 0600 0.00 0.34 12.24 0.175 498 10.6 SW | 226 1531 36.4 59 10 0.0 1,015.0 0916 1,011.0 1823 3.8 5.9 154.0 37.8 13.0 - - - - - - -
4/25/22 90.6 1424 50.0 0624 0.00 0.34 12.24 0.205 582 12.0 SW | 223 1736 29.9 56 8 0.0 1,017.0 0937 1,014.0 1651 3.8 6.6 157.6 37.3 14.7 - - - - - - -
4/24/22 86.8 1610 49.9 0325 0.00 0.34 12.24 0.207 590 16.6 NNW | 344 1241 29.3 64 8 0.0 1,019.0 1121 1,015.0 1707 3.8 6.5 115.6 38.1 18.0 - - - - - - -
4/23/22 81.0 1600 44.5 0629 0.00 0.34 12.24 0.182 587 9.6 W | 263 1641 38.0 88 14 6.6 1,020.0 0836 1,015.0 1711 3.8 6.4 100.0 36.1 12.7 - - - - - - -
4/22/22 65.5 1340 47.9 0003 0.02 0.34 12.24 0.141 506 15.3 WSW | 252 1523 44.0 91 40 4.6 1,020.0 0057 1,015.0 0216 3.8 7.7 94.0 39.9 32.3 0.34 0.01 0605 0.01 0614 0.06 0102
4/21/22 68.9 1403 43.3 0614 0.32 0.32 12.22 0.130 430 12.4 SW | 216 1752 45.3 92 40 9.5 1,018.0 0834 1,015.0 0039 3.8 6.5 115.1 33.3 27.2 0.32 0.03 2310 0.14 2312 0.25 2346
4/20/22 68.7 1552 48.1 0059 0.00 0.00 11.90 0.103 333 9.4 SE | 134 1658 46.5 88 43 0.4 1,018.0 2347 1,015.0 0350 3.8 5.8 107.5 39.7 16.3 - - - - - - -
4/19/22 78.2 1433 54.4 2350 0.00 0.00 11.90 0.177 569 13.0 WNW | 296 1515 46.6 82 25 0.0 1,016.0 0151 1,012.0 1730 3.8 6.9 130.7 47.8 18.8 - - - - - - -
4/18/22 83.7 1308 49.7 0352 0.00 0.00 11.90 0.173 528 12.3 WNW | 294 1547 44.8 87 15 4.3 1,019.0 0817 1,014.0 2044 3.8 6.7 140.0 39.5 16.0 - - - - - - -
4/17/22 80.5 1405 49.2 0138 0.00 0.00 11.90 0.176 585 11.0 SSW | 212 1431 47.4 90 29 3.4 1,022.0 0808 1,017.0 1846 3.8 6.2 133.8 40.8 18.4 - - - - - - -
4/16/22 69.4 1424 49.4 0213 0.00 0.00 11.90 0.137 483 13.8 WSW | 249 1542 47.0 88 43 3.9 1,021.0 2359 1,017.0 0438 3.8 8.5 113.2 40.0 28.6 - - - - - - -
4/15/22 75.1 1403 44.5 0629 0.00 0.00 11.90 0.168 569 12.2 W | 260 1455 43.8 86 33 3.1 1,018.0 0057 1,013.0 1714 3.8 6.7 126.4 34.1 17.9 - - - - - - -
4/14/22 72.8 1348 41.4 0631 0.00 0.00 11.90 0.173 581 13.3 WSW | 241 1544 36.0 84 17 1.9 1,019.0 0113 1,014.0 1857 3.8 8.0 127.1 29.4 21.7 - - - - - - -
4/13/22 73.4 1306 46.5 0121 0.00 0.00 11.90 0.175 589 11.2 SW | 225 1703 23.7 66 10 0.0 1,021.0 0721 1,018.0 1853 3.8 6.4 128.3 33.9 22.0 - - - - - - -
4/12/22 66.2 1454 47.1 0636 0.00 0.00 11.90 0.166 597 17.2 NW | 326 0935 17.6 69 12 0.0 1,020.0 0051 1,013.0 0102 3.8 9.4 103.5 37.5 25.4 - - - - - - -
4/11/22 66.8 1411 50.7 0149 0.00 0.00 11.90 0.126 435 13.1 SSE | 147 1206 46.3 85 42 1.7 1,014.0 1016 1,010.0 1718 3.8 7.2 110.4 42.8 34.6 - - - - - - -
4/10/22 72.4 1449 49.0 0537 0.00 0.00 11.90 0.157 546 11.0 SSW | 211 1416 49.6 92 45 6.9 1,013.0 1022 1,010.0 1655 3.8 6.6 121.1 39.0 18.8 - - - - - - -
4/9/22 88.9 1235 54.6 0044 0.00 0.00 11.90 0.187 553 10.6 WSW | 245 1613 43.6 77 19 0.0 1,012.0 0140 1,008.0 1646 3.8 8.2 151.9 44.8 15.4 - - - - - - -
4/8/22 99.6 1344 62.7 0101 0.00 0.00 11.90 0.215 567 13.8 W | 269 1624 24.1 36 5 0.0 1,017.0 0110 1,012.0 1909 3.8 9.3 163.0 52.2 25.4 - - - - - - -
4/7/22 95.1 1623 57.7 0251 0.00 0.00 11.90 0.208 564 14.2 NNE | 28 1144 21.6 59 5 0.0 1,021.0 0925 1,016.0 1750 3.8 6.5 137.0 47.3 18.0 - - - - - - -
4/6/22 95.3 1514 52.7 0643 0.00 0.00 11.90 0.189 551 10.6 NNE | 29 1323 40.3 76 9 0.0 1,019.0 0059 1,014.0 0101 3.8 6.2 136.0 44.6 9.0 - - - - - - -
4/5/22 91.2 1433 52.8 0429 0.00 0.00 11.90 0.183 549 13.5 W | 271 1339 38.4 67 15 0.0 1,015.0 0117 1,011.0 1710 3.8 8.4 104.0 45.5 23.3 - - - - - - -
4/4/22 81.6 1346 43.1 0531 0.00 0.00 11.90 0.147 499 6.2 W | 264 1746 45.1 95 21 8.3 1,015.0 1000 1,012.0 1723 3.8 4.9 99.8 38.8 12.2 - - - - - - -
4/3/22 69.0 1425 48.1 0053 0.00 0.00 11.90 0.114 390 10.8 SW | 231 1637 48.4 91 48 3.0 1,017.0 0123 1,013.0 1742 3.8 7.4 96.3 43.6 28.5 - - - - - - -
4/2/22 63.2 1509 47.8 0548 0.00 0.00 11.90 0.054 162 7.9 SSW | 199 1640 48.9 93 62 8.3 1,019.0 1110 1,015.0 0357 3.8 5.0 87.4 43.6 19.4 - - - - - - -
4/1/22 77.6 1433 46.4 0652 0.00 0.00 11.90 0.151 522 9.2 SW | 226 1535 48.1 94 35 8.8 1,016.0 0057 1,012.0 1555 3.8 6.4 103.2 41.7 20.1 - - - - - - -
3/31/22 65.8 1101 50.9 0101 0.00 1.07 11.90 0.070 222 8.5 WSW | 246 1412 48.4 90 51 1.5 1,015.0 0121 1,011.0 1915 3.8 6.0 95.3 50.1 15.2 - - - - - - -
3/30/22 75.5 1646 48.1 0212 0.00 1.07 11.90 0.144 515 10.8 WSW | 249 1331 49.0 92 42 11.7 1,020.0 0917 1,014.0 1751 3.8 6.8 105.0 45.6 16.3 - - - - - - -
3/29/22 71.0 1352 44.9 0535 0.00 1.07 11.90 0.138 501 12.1 WSW | 237 1613 45.4 94 31 10.9 1,019.0 0059 1,010.0 0152 3.8 8.3 105.3 43.7 25.8 1.05 - - - - - -
3/28/22 61.8 1258 48.6 2259 1.05 1.07 11.90 0.068 246 12.7 ENE | 68 0738 47.1 92 49 13.6 1,014.0 0106 1,008.0 1847 3.8 8.5 96.0 51.6 30.0 1.05 0.02 0948 0.11 0928 0.48 1011
3/27/22 68.6 1418 52.4 0101 0.00 0.02 10.85 0.138 500 12.8 SSE | 160 1558 45.4 83 38 0.0 1,014.0 1025 1,011.0 1636 3.8 6.8 102.4 56.4 27.4 - - - - - - -
3/26/22 84.8 1517 47.0 0710 0.00 0.02 10.85 0.168 534 9.2 SE | 145 1524 39.0 92 5 6.2 1,017.0 0138 1,011.0 1841 3.8 5.7 125.9 37.7 14.6 - - - - - - -
3/25/22 90.4 1415 50.2 0628 0.00 0.02 10.85 0.161 494 10.4 SSW | 213 1642 40.1 75 12 0.0 1,018.0 0918 1,014.0 1843 3.8 6.4 144.9 42.5 13.6 - - - - - - -
3/24/22 88.9 1452 50.0 0652 0.00 0.02 10.85 0.170 511 10.7 WSW | 256 1702 38.4 65 14 0.0 1,020.0 0200 1,016.0 1620 3.8 7.0 139.0 42.4 18.8 - - - - - - -
3/23/22 86.8 1258 50.8 0652 0.00 0.02 10.85 0.176 511 12.0 W | 268 1648 36.3 61 14 0.0 1,022.0 0947 1,018.0 1700 3.8 7.4 144.4 43.7 20.6 - - - - - - -
3/22/22 90.8 1602 53.1 0320 0.00 0.02 10.85 0.169 503 12.0 NNE | 20 1320 32.9 46 12 0.0 1,020.0 0951 1,017.0 1647 3.8 8.0 129.9 44.8 20.9 - - - - - - -
3/21/22 83.2 1714 57.5 2311 0.00 0.02 10.85 0.159 483 15.5 WSW | 248 0317 27.6 38 12 0.0 1,021.0 0934 1,016.0 1709 3.8 11.0 115.8 48.2 26.9 - - - - - - -
3/20/22 73.4 1554 46.4 0610 0.01 0.02 10.85 0.144 509 12.2 WNW | 282 2117 35.2 91 15 6.5 1,019.0 2322 1,013.0 0345 3.8 10.5 92.1 39.2 31.6 - 0.01 0534 0.01 0543 0.01 0633
3/19/22 70.7 1435 48.2 0652 0.01 0.01 10.84 0.124 411 14.7 WNW | 302 1653 41.8 89 34 3.6 1,019.0 0952 1,014.0 0058 3.8 10.0 107.4 43.0 31.9 - 0.01 2224 0.01 2233 0.01 2323
3/18/22 83.4 1430 49.8 0712 0.00 0.00 10.83 0.152 490 9.0 SE | 128 1433 30.1 51 11 0.0 1,019.0 1047 1,016.0 1544 3.8 5.8 121.3 40.2 17.7 - - - - - - -
3/17/22 84.7 1447 51.4 0053 0.00 0.00 10.83 0.161 458 13.4 W | 265 1602 27.6 48 11 0.0 1,020.0 1012 1,017.0 1754 3.8 9.1 118.7 42.2 28.0 - - - - - - -
3/16/22 80.3 1521 53.3 0112 0.00 0.00 10.83 0.160 490 15.9 W | 267 1506 33.6 59 10 0.0 1,019.0 1032 1,015.0 1638 3.8 11.6 88.3 44.9 27.4 - - - - - - -
3/15/22 83.1 1357 44.5 0711 0.00 0.00 10.83 0.131 413 10.3 SSW | 195 1438 38.9 87 15 2.0 1,023.0 0937 1,017.0 1946 3.8 7.1 94.3 36.2 14.5 - - - - - - -
3/14/22 84.5 1524 42.3 0705 0.00 0.00 10.83 0.142 471 8.8 WSW | 241 1758 37.4 84 12 0.0 1,024.0 0914 1,020.0 1631 3.8 6.4 95.7 35.1 17.9 - - - - - - -
3/13/22 77.8 1403 38.7 0718 0.00 0.00 10.83 0.138 472 10.6 WSW | 258 1511 32.4 71 17 0.0 1,022.0 0917 1,018.0 1542 3.8 7.3 93.1 30.7 20.2 - - - - - - -
3/12/22 81.6 1348 40.2 0611 0.00 0.00 10.83 0.152 482 11.8 WSW | 244 1552 18.9 50 8 0.0 1,026.0 0013 1,019.0 1659 3.8 8.2 103.4 29.4 26.2 - - - - - - -
3/11/22 75.4 1351 46.8 2357 0.00 0.00 10.83 0.148 486 13.7 NNE | 29 0950 4.9 32 6 0.0 1,027.0 0926 1,022.0 0001 3.8 7.1 94.8 36.3 21.8 - - - - - - -
3/10/22 73.4 1441 45.0 0006 0.00 0.00 10.83 0.132 458 11.9 WSW | 245 1123 29.6 90 9 3.8 1,022.0 2345 1,013.0 0316 3.8 6.8 96.8 40.2 18.3 - - - - - - -
3/9/22 72.6 1341 37.7 0600 0.00 0.00 10.83 0.123 452 12.0 S | 185 1417 34.5 83 30 0.0 1,017.0 0814 1,013.0 1533 3.8 7.7 102.6 29.8 15.0 - - - - - - -
3/8/22 75.4 1412 43.4 0546 0.00 0.00 10.83 0.145 468 14.4 WNW | 284 1648 16.0 45 10 0.0 1,023.0 0039 1,016.0 1538 3.8 9.6 103.5 32.8 29.8 - - - - - - -
3/7/22 69.1 1512 34.5 0534 0.00 0.00 10.83 0.136 468 13.0 NW | 311 1422 18.7 84 7 3.1 1,025.0 0901 1,021.0 1559 3.8 7.4 94.5 30.4 15.4 - - - - - - -
3/6/22 64.4 1337 34.3 0631 0.00 0.00 10.83 0.113 454 11.4 S | 186 1453 31.7 86 25 5.0 1,024.0 2153 1,021.0 0001 3.8 7.5 96.3 32.2 17.8 - - - - - - -
3/5/22 59.0 1310 39.1 2342 0.00 0.00 10.83 0.113 443 16.6 W | 269 1357 35.1 78 34 0.0 1,021.0 2359 1,016.0 0303 3.8 11.4 90.0 39.1 54.4 - - - - - - -
3/4/22 62.2 1140 44.3 0634 0.00 0.00 10.83 0.075 266 13.0 WSW | 239 1602 43.9 94 42 7.1 1,018.0 2146 1,012.0 0441 3.8 9.4 81.8 41.4 35.2 - - - - - - -
3/3/22 72.4 1304 42.7 0608 0.00 0.00 10.83 0.109 385 12.0 SE | 142 1510 40.3 87 28 1.3 1,016.0 0001 1,012.0 1453 3.8 6.4 99.4 36.0 15.2 - - - - - - -
3/2/22 86.7 1331 42.1 0633 0.00 0.00 10.83 0.132 428 7.5 ENE | 75 1316 28.0 59 8 0.0 1,020.0 0024 1,015.0 1550 3.8 5.2 106.8 35.6 11.4 - - - - - - -
3/1/22 89.9 1254 51.2 2359 0.00 0.00 10.83 0.149 448